createdAt,value
2023-02-22T00:02:11.305Z,100831.66
2023-02-22T00:04:39.928Z,100819.47
2023-02-22T00:07:07.374Z,100821.13
2023-02-22T00:09:34.389Z,100821.97
2023-02-22T00:12:01.527Z,100818.50
2023-02-22T00:14:28.866Z,100821.28
2023-02-22T00:16:59.991Z,100815.19
2023-02-22T00:19:28.296Z,100810.25
2023-02-22T00:21:55.222Z,100804.28
2023-02-22T00:24:23.603Z,100797.50
2023-02-22T00:26:52.823Z,100784.66
2023-02-22T00:29:19.623Z,100790.38
2023-02-22T00:31:46.617Z,100793.44
2023-02-22T00:34:14.222Z,100794.88
2023-02-22T00:36:44.112Z,100794.50
2023-02-22T00:39:11.596Z,100797.88
2023-02-22T00:41:38.554Z,100812.13
2023-02-22T00:44:05.447Z,100819.03
2023-02-22T00:46:32.295Z,100810.19
2023-02-22T00:48:59.315Z,100814.63
2023-02-22T00:51:27.098Z,100815.13
2023-02-22T00:53:54.214Z,100814.44
2023-02-22T00:56:21.156Z,100814.63
2023-02-22T00:58:48.021Z,100802.75
2023-02-22T01:01:15.345Z,100801.94
2023-02-22T01:03:42.549Z,100804.56
2023-02-22T01:06:09.617Z,100801.31
2023-02-22T01:08:36.504Z,100798.84
2023-02-22T01:11:03.662Z,100802.59
2023-02-22T01:13:30.570Z,100802.75
2023-02-22T01:15:57.624Z,100796.13
2023-02-22T01:18:26.402Z,100791.41
2023-02-22T01:20:53.230Z,100786.44
2023-02-22T01:23:20.184Z,100794.31
2023-02-22T01:25:47.072Z,100787.72
2023-02-22T01:28:14.131Z,100785.09
2023-02-22T01:30:41.248Z,100787.34
2023-02-22T01:33:08.640Z,100777.66
2023-02-22T01:35:37.627Z,100781.78
2023-02-22T01:38:04.992Z,100777.91
2023-02-22T01:40:33.699Z,100777.72
2023-02-22T01:43:02.669Z,100774.13
2023-02-22T01:45:31.003Z,100779.69
2023-02-22T01:48:01.128Z,100773.63
2023-02-22T01:50:28.472Z,100772.09
2023-02-22T01:52:55.711Z,100774.91
2023-02-22T01:55:22.628Z,100770.59
2023-02-22T01:57:49.786Z,100781.78
2023-02-22T02:00:20.494Z,100781.78
2023-02-22T02:02:51.576Z,100763.69
2023-02-22T02:05:18.845Z,100769.41
2023-02-22T02:07:46.854Z,100769.53
2023-02-22T02:10:15.682Z,100768.56
2023-02-22T02:12:44.659Z,100761.81
2023-02-22T02:15:14.632Z,100771.31
2023-02-22T02:17:41.514Z,100765.50
2023-02-22T02:20:11.341Z,100759.41
2023-02-22T02:22:38.699Z,100753.19
2023-02-22T02:25:05.939Z,100757.34
2023-02-22T02:27:35.792Z,100753.56
2023-02-22T02:30:05.775Z,100744.03
2023-02-22T02:32:35.803Z,100748.63
2023-02-22T02:35:05.863Z,100746.28
2023-02-22T02:37:33.562Z,100743.81
2023-02-22T02:40:11.681Z,100744.78
2023-02-22T02:42:43.007Z,100738.69
2023-02-22T02:45:14.135Z,100739.53
2023-02-22T02:47:46.128Z,100737.44
2023-02-22T02:50:16.144Z,100730.38
2023-02-22T02:52:45.646Z,100732.53
2023-02-22T02:55:13.509Z,100724.81
2023-02-22T02:57:40.446Z,100730.06
2023-02-22T03:00:11.245Z,100717.75
2023-02-22T03:02:38.496Z,100714.47
2023-02-22T03:05:08.379Z,100718.72
2023-02-22T03:07:38.717Z,100712.50
2023-02-22T03:10:08.699Z,100710.03
2023-02-22T03:12:43.022Z,100707.69
2023-02-22T03:15:13.079Z,100705.38
2023-02-22T03:17:46.058Z,100706.88
2023-02-22T03:20:20.820Z,100701.47
2023-02-22T03:22:54.972Z,100696.09
2023-02-22T03:25:29.974Z,100696.75
2023-02-22T03:28:02.672Z,100694.09
2023-02-22T03:30:29.946Z,100687.19
2023-02-22T03:33:00.652Z,100686.41
2023-02-22T03:35:31.640Z,100687.75
2023-02-22T03:38:00.798Z,100680.84
2023-02-22T03:40:30.938Z,100678.53
2023-02-22T03:43:00.654Z,100676.03
2023-02-22T03:45:29.222Z,100677.84
2023-02-22T03:47:59.227Z,100669.81
2023-02-22T03:50:30.055Z,100678.53
2023-02-22T03:52:59.320Z,100667.84
2023-02-22T03:55:26.406Z,100659.97
2023-02-22T03:57:57.778Z,100658.31
2023-02-22T04:00:25.886Z,100656.69
2023-02-22T04:02:53.031Z,100655.66
2023-02-22T04:05:19.967Z,100654.72
2023-02-22T04:07:46.859Z,100659.31
2023-02-22T04:10:14.482Z,100654.34
2023-02-22T04:12:41.324Z,100647.41
2023-02-22T04:15:09.086Z,100647.28
2023-02-22T04:17:35.930Z,100650.59
2023-02-22T04:20:04.187Z,100659.91
2023-02-22T04:22:31.023Z,100660.72
2023-02-22T04:24:57.888Z,100653.69
2023-02-22T04:27:24.683Z,100652.84
2023-02-22T04:29:51.567Z,100645.09
2023-02-22T04:32:18.508Z,100641.50
2023-02-22T04:34:45.372Z,100651.06
2023-02-22T04:37:12.756Z,100635.81
2023-02-22T04:39:39.768Z,100645.34
2023-02-22T04:42:06.634Z,100644.78
2023-02-22T04:44:33.585Z,100642.84
2023-02-22T04:47:00.506Z,100643.00
2023-02-22T04:49:27.327Z,100641.19
2023-02-22T04:51:54.286Z,100638.56
2023-02-22T04:54:21.304Z,100633.19
2023-02-22T04:56:48.349Z,100632.34
2023-02-22T04:59:15.328Z,100628.75
2023-02-22T05:01:42.180Z,100624.31
2023-02-22T05:04:09.219Z,100621.53
2023-02-22T05:06:36.097Z,100616.44
2023-02-22T05:09:03.264Z,100626.94
2023-02-22T05:11:30.174Z,100631.53
2023-02-22T05:13:57.040Z,100621.63
2023-02-22T05:16:24.242Z,100620.78
2023-02-22T05:18:51.372Z,100635.28
2023-02-22T05:21:18.546Z,100626.25
2023-02-22T05:23:45.521Z,100625.97
2023-02-22T05:26:12.431Z,100618.91
2023-02-22T05:28:39.494Z,100623.34
2023-02-22T05:31:07.648Z,100620.56
2023-02-22T05:33:34.615Z,100621.25
2023-02-22T05:36:01.490Z,100613.63
2023-02-22T05:38:28.698Z,100622.81
2023-02-22T05:40:55.549Z,100618.25
2023-02-22T05:43:22.484Z,100619.59
2023-02-22T05:45:49.390Z,100627.97
2023-02-22T05:48:16.604Z,100624.22
2023-02-22T05:50:44.314Z,100622.91
2023-02-22T05:53:11.223Z,100620.56
2023-02-22T05:55:38.088Z,100617.78
2023-02-22T05:58:06.097Z,100612.84
2023-02-22T06:00:32.957Z,100605.94
2023-02-22T06:03:02.776Z,100610.50
2023-02-22T06:05:29.897Z,100616.72
2023-02-22T06:07:57.192Z,100605.09
2023-02-22T06:10:24.572Z,100615.47
2023-02-22T06:12:51.458Z,100616.28
2023-02-22T06:15:19.083Z,100619.59
2023-02-22T06:17:46.157Z,100617.09
2023-02-22T06:20:14.262Z,100611.69
2023-02-22T06:22:42.313Z,100607.13
2023-02-22T06:25:10.041Z,100611.34
2023-02-22T06:27:37.476Z,100602.63
2023-02-22T06:30:05.351Z,100606.44
2023-02-22T06:32:32.253Z,100601.19
2023-02-22T06:34:59.327Z,100597.59
2023-02-22T06:37:26.163Z,100601.19
2023-02-22T06:39:52.988Z,100606.44
2023-02-22T06:42:19.877Z,100612.53
2023-02-22T06:44:46.808Z,100612.53
2023-02-22T06:47:13.774Z,100623.53
2023-02-22T06:49:40.686Z,100627.16
2023-02-22T06:52:08.645Z,100625.34
2023-02-22T06:54:36.014Z,100622.91
2023-02-22T06:57:02.915Z,100621.88
2023-02-22T06:59:29.806Z,100626.63
2023-02-22T07:01:56.762Z,100627.56
2023-02-22T07:04:23.653Z,100623.28
2023-02-22T07:06:50.943Z,100626.41
2023-02-22T07:09:18.831Z,100626.41
2023-02-22T07:11:45.766Z,100626.59
2023-02-22T07:14:12.719Z,100622.16
2023-02-22T07:16:39.633Z,100626.94
2023-02-22T07:19:06.612Z,100632.84
2023-02-22T07:21:33.479Z,100631.22
2023-02-22T07:24:00.510Z,100635.50
2023-02-22T07:26:27.876Z,100635.34
2023-02-22T07:28:54.754Z,100636.03
2023-02-22T07:31:21.863Z,100644.56
2023-02-22T07:33:49.332Z,100635.72
2023-02-22T07:36:18.326Z,100639.03
2023-02-22T07:38:46.587Z,100647.06
2023-02-22T07:41:13.571Z,100640.97
2023-02-22T07:43:40.440Z,100650.19
2023-02-22T07:46:07.759Z,100654.16
2023-02-22T07:48:34.783Z,100645.16
2023-02-22T07:51:01.697Z,100644.69
2023-02-22T07:53:30.521Z,100644.00
2023-02-22T07:55:58.405Z,100645.97
2023-02-22T07:58:26.298Z,100652.94
2023-02-22T08:00:53.735Z,100658.56
2023-02-22T08:03:21.902Z,100651.00
2023-02-22T08:05:50.474Z,100657.69
2023-02-22T08:08:19.872Z,100659.63
2023-02-22T08:10:47.627Z,100654.88
2023-02-22T08:13:14.965Z,100652.94
2023-02-22T08:15:42.459Z,100657.09
2023-02-22T08:18:10.321Z,100655.44
2023-02-22T08:20:38.415Z,100654.59
2023-02-22T08:23:06.257Z,100650.81
2023-02-22T08:25:33.478Z,100647.91
2023-02-22T08:28:01.677Z,100658.78
2023-02-22T08:30:30.048Z,100658.56
2023-02-22T08:32:58.535Z,100661.34
2023-02-22T08:35:25.604Z,100663.69
2023-02-22T08:37:54.007Z,100662.25
2023-02-22T08:40:22.384Z,100672.59
2023-02-22T08:42:49.579Z,100667.50
2023-02-22T08:45:16.960Z,100667.66
2023-02-22T08:47:44.484Z,100664.88
2023-02-22T08:50:17.154Z,100655.00
2023-02-22T08:52:44.111Z,100653.75
2023-02-22T08:55:11.258Z,100648.34
2023-02-22T08:57:38.476Z,100643.78
2023-02-22T09:00:05.941Z,100652.16
2023-02-22T09:02:32.963Z,100658.09
2023-02-22T09:04:59.921Z,100662.22
2023-02-22T09:07:26.833Z,100662.91
2023-02-22T09:09:54.190Z,100662.56
2023-02-22T09:12:21.252Z,100658.97
2023-02-22T09:14:48.192Z,100658.28
2023-02-22T09:17:15.349Z,100657.31
2023-02-22T09:19:42.387Z,100661.44
2023-02-22T09:22:09.365Z,100658.34
2023-02-22T09:24:36.476Z,100658.84
2023-02-22T09:27:04.782Z,100659.38
2023-02-22T09:29:31.763Z,100659.53
2023-02-22T09:31:58.821Z,100657.56
2023-02-22T09:34:28.952Z,100666.28
2023-02-22T09:36:57.728Z,100660.53
2023-02-22T09:39:24.740Z,100676.88
2023-02-22T09:41:55.456Z,100680.31
2023-02-22T09:44:29.693Z,100672.09
2023-02-22T09:46:58.370Z,100673.75
2023-02-22T09:49:30.047Z,100682.78
2023-02-22T09:52:00.102Z,100675.06
2023-02-22T09:54:27.368Z,100679.50
2023-02-22T09:56:57.746Z,100680.97
2023-02-22T09:59:28.037Z,100674.88
2023-02-22T10:01:58.726Z,100675.72
2023-02-22T10:04:30.787Z,100675.72
2023-02-22T10:07:06.305Z,100676.22
2023-02-22T10:09:38.012Z,100674.94
2023-02-22T10:12:11.462Z,100675.28
2023-02-22T10:14:43.872Z,100679.91
2023-02-22T10:17:14.099Z,100683.06
2023-02-22T10:19:44.226Z,100673.19
2023-02-22T10:22:14.215Z,100674.53
2023-02-22T10:24:42.474Z,100677.16
2023-02-22T10:27:16.900Z,100678.78
2023-02-22T10:29:46.923Z,100670.06
2023-02-22T10:32:18.903Z,100669.94
2023-02-22T10:34:49.388Z,100667.16
2023-02-22T10:37:17.647Z,100662.72
2023-02-22T10:39:47.024Z,100671.94
2023-02-22T10:42:14.525Z,100670.78
2023-02-22T10:44:42.176Z,100666.84
2023-02-22T10:47:11.319Z,100668.03
2023-02-22T10:49:41.230Z,100673.78
2023-02-22T10:52:11.458Z,100666.53
2023-02-22T10:54:40.574Z,100681.22
2023-02-22T10:57:08.133Z,100677.91
2023-02-22T10:59:36.221Z,100669.69
2023-02-22T11:02:11.205Z,100667.72
2023-02-22T11:04:41.298Z,100670.19
2023-02-22T11:07:10.712Z,100675.13
2023-02-22T11:09:41.043Z,100674.47
2023-02-22T11:12:09.339Z,100670.34
2023-02-22T11:14:36.380Z,100665.41
2023-02-22T11:17:07.363Z,100668.38
2023-02-22T11:19:34.614Z,100672.63
2023-02-22T11:22:10.904Z,100671.66
2023-02-22T11:24:48.982Z,100670.69
2023-02-22T11:27:19.833Z,100675.47
2023-02-22T11:29:51.332Z,100673.50
2023-02-22T11:32:22.610Z,100678.78
2023-02-22T11:35:03.628Z,100678.28
2023-02-22T11:37:37.009Z,100682.38
2023-02-22T11:40:05.561Z,100678.94
2023-02-22T11:42:32.660Z,100676.28
2023-02-22T11:45:02.862Z,100672.69
2023-02-22T11:47:29.933Z,100676.16
2023-02-22T11:49:58.237Z,100677.78
2023-02-22T11:52:30.269Z,100690.16
2023-02-22T11:55:04.851Z,100678.78
2023-02-22T11:57:32.180Z,100682.56
2023-02-22T12:00:02.171Z,100682.56
2023-02-22T12:02:37.490Z,100677.78
2023-02-22T12:05:08.403Z,100676.81
2023-02-22T12:07:38.688Z,100671.22
2023-02-22T12:10:09.380Z,100671.22
2023-02-22T12:12:39.460Z,100667.91
2023-02-22T12:15:14.241Z,100669.91
2023-02-22T12:17:59.431Z,100668.91
2023-02-22T12:20:32.441Z,100673.03
2023-02-22T12:23:02.501Z,100674.34
2023-02-22T12:25:32.710Z,100682.56
2023-02-22T12:28:09.998Z,100675.66
2023-02-22T12:30:41.728Z,100672.69
2023-02-22T12:33:13.264Z,100669.91
2023-02-22T12:35:43.849Z,100669.06
2023-02-22T12:38:12.453Z,100668.72
2023-02-22T12:40:42.655Z,100671.06
2023-02-22T12:43:12.948Z,100671.41
2023-02-22T12:45:43.301Z,100671.75
2023-02-22T12:48:13.658Z,100673.22
2023-02-22T12:50:43.258Z,100673.06
2023-02-22T12:53:13.693Z,100665.66
2023-02-22T12:55:46.229Z,100667.28
2023-02-22T12:58:22.004Z,100663.00
2023-02-22T13:00:52.546Z,100674.38
2023-02-22T13:03:22.634Z,100671.41
2023-02-22T13:05:53.960Z,100675.00
2023-02-22T13:08:21.433Z,100678.66
2023-02-22T13:10:57.057Z,100671.09
2023-02-22T13:13:27.315Z,100676.69
2023-02-22T13:15:57.915Z,100679.81
2023-02-22T13:18:32.973Z,100672.09
2023-02-22T13:21:00.359Z,100673.63
2023-02-22T13:23:30.330Z,100673.94
2023-02-22T13:26:03.993Z,100676.91
2023-02-22T13:28:34.663Z,100679.88
2023-02-22T13:31:03.403Z,100672.78
2023-02-22T13:33:30.942Z,100677.06
2023-02-22T13:36:01.042Z,100672.78
2023-02-22T13:38:29.827Z,100673.13
2023-02-22T13:41:00.219Z,100670.50
2023-02-22T13:43:30.609Z,100662.59
2023-02-22T13:46:00.764Z,100664.88
2023-02-22T13:48:31.701Z,100669.81
2023-02-22T13:51:02.001Z,100664.38
2023-02-22T13:53:35.446Z,100674.44
2023-02-22T13:56:02.729Z,100668.97
2023-02-22T13:58:32.629Z,100670.44
2023-02-22T14:01:01.002Z,100668.66
2023-02-22T14:03:36.442Z,100669.94
2023-02-22T14:06:04.421Z,100676.22
2023-02-22T14:08:34.203Z,100677.88
2023-02-22T14:11:02.557Z,100673.94
2023-02-22T14:13:31.147Z,100676.25
2023-02-22T14:16:00.349Z,100671.78
2023-02-22T14:18:32.212Z,100677.72
2023-02-22T14:21:02.524Z,100680.53
2023-02-22T14:23:32.709Z,100677.91
2023-02-22T14:26:03.020Z,100683.19
2023-02-22T14:28:33.239Z,100684.31
2023-02-22T14:31:03.930Z,100685.66
2023-02-22T14:33:34.057Z,100687.13
2023-02-22T14:36:01.253Z,100684.97
2023-02-22T14:38:30.060Z,100682.84
2023-02-22T14:40:59.166Z,100684.97
2023-02-22T14:43:26.611Z,100683.16
2023-02-22T14:45:56.379Z,100685.63
2023-02-22T14:48:27.071Z,100692.06
2023-02-22T14:50:58.078Z,100686.13
2023-02-22T14:53:29.089Z,100689.94
2023-02-22T14:55:59.349Z,100685.16
2023-02-22T14:58:30.373Z,100685.47
2023-02-22T15:00:57.716Z,100687.13
2023-02-22T15:03:33.016Z,100697.31
2023-02-22T15:06:03.324Z,100685.78
2023-02-22T15:08:32.488Z,100698.47
2023-02-22T15:10:59.710Z,100687.59
2023-02-22T15:13:28.788Z,100686.78
2023-02-22T15:16:00.467Z,100694.69
2023-02-22T15:18:32.995Z,100699.31
2023-02-22T15:21:06.930Z,100692.22
2023-02-22T15:23:37.113Z,100695.34
2023-02-22T15:26:04.514Z,100701.13
2023-02-22T15:28:31.892Z,100696.03
2023-02-22T15:31:02.156Z,100696.19
2023-02-22T15:33:34.573Z,100699.81
2023-02-22T15:36:01.832Z,100704.25
2023-02-22T15:38:30.223Z,100696.34
2023-02-22T15:41:00.433Z,100710.19
2023-02-22T15:43:30.892Z,100707.03
2023-02-22T15:45:59.113Z,100715.31
2023-02-22T15:48:27.204Z,100712.19
2023-02-22T15:50:58.036Z,100713.31
2023-02-22T15:53:27.884Z,100713.31
2023-02-22T15:55:56.630Z,100714.97
2023-02-22T15:58:26.901Z,100718.28
2023-02-22T16:00:57.133Z,100722.72
2023-02-22T16:03:27.665Z,100722.72
2023-02-22T16:05:57.122Z,100721.41
2023-02-22T16:08:24.541Z,100722.72
2023-02-22T16:10:54.349Z,100725.84
2023-02-22T16:13:31.669Z,100731.94
2023-02-22T16:16:02.635Z,100726.66
2023-02-22T16:18:34.046Z,100725.19
2023-02-22T16:21:03.965Z,100732.44
2023-02-22T16:23:33.916Z,100735.06
2023-02-22T16:26:03.497Z,100738.69
2023-02-22T16:28:31.322Z,100738.03
2023-02-22T16:30:58.955Z,100748.91
2023-02-22T16:33:30.182Z,100750.91
2023-02-22T16:35:57.472Z,100750.22
2023-02-22T16:38:28.005Z,100757.63
2023-02-22T16:40:56.382Z,100749.25
2023-02-22T16:43:25.090Z,100750.38
2023-02-22T16:45:53.421Z,100749.84
2023-02-22T16:48:22.822Z,100746.25
2023-02-22T16:50:51.549Z,100748.03
2023-02-22T16:53:20.456Z,100750.81
2023-02-22T16:55:48.773Z,100746.38
2023-02-22T16:58:16.942Z,100749.03
2023-02-22T17:00:43.953Z,100749.19
2023-02-22T17:03:15.313Z,100752.00
2023-02-22T17:05:42.355Z,100760.69
2023-02-22T17:08:09.556Z,100750.34
2023-02-22T17:10:37.788Z,100761.84
2023-02-22T17:13:21.847Z,100759.22
2023-02-22T17:15:50.816Z,100754.94
2023-02-22T17:18:22.814Z,100754.25
2023-02-22T17:20:51.163Z,100766.78
2023-02-22T17:23:19.090Z,100760.69
2023-02-22T17:25:49.166Z,100759.03
2023-02-22T17:28:16.513Z,100765.97
2023-02-22T17:30:45.526Z,100772.88
2023-02-22T17:33:16.287Z,100778.31
2023-02-22T17:35:43.461Z,100787.38
2023-02-22T17:38:10.656Z,100787.38
2023-02-22T17:40:38.974Z,100793.63
2023-02-22T17:43:09.207Z,100778.78
2023-02-22T17:45:39.319Z,100788.66
2023-02-22T17:48:06.637Z,100784.41
2023-02-22T17:50:34.240Z,100794.94
2023-02-22T17:53:01.415Z,100784.69
2023-02-22T17:55:28.451Z,100794.25
2023-02-22T17:58:00.130Z,100793.28
2023-02-22T18:00:32.074Z,100796.91
2023-02-22T18:03:01.937Z,100799.19
2023-02-22T18:05:29.580Z,100800.84
2023-02-22T18:07:56.585Z,100799.03
2023-02-22T18:10:26.562Z,100801.69
2023-02-22T18:12:54.357Z,100799.88
2023-02-22T18:15:22.550Z,100813.88
2023-02-22T18:17:49.814Z,100811.25
2023-02-22T18:20:22.957Z,100811.09
2023-02-22T18:22:50.329Z,100803.97
2023-02-22T18:25:17.579Z,100810.91
2023-02-22T18:27:44.678Z,100808.13
2023-02-22T18:30:12.464Z,100817.00
2023-02-22T18:32:40.299Z,100815.34
2023-02-22T18:35:07.692Z,100819.00
2023-02-22T18:37:35.921Z,100823.25
2023-02-22T18:40:04.023Z,100822.44
2023-02-22T18:42:31.211Z,100827.69
2023-02-22T18:45:01.241Z,100820.81
2023-02-22T18:47:28.663Z,100827.69
2023-02-22T18:49:55.758Z,100827.88
2023-02-22T18:52:22.930Z,100827.06
2023-02-22T18:54:50.620Z,100829.69
2023-02-22T18:57:18.219Z,100834.81
2023-02-22T18:59:45.599Z,100834.13
2023-02-22T19:02:14.709Z,100834.97
2023-02-22T19:04:44.605Z,100838.25
2023-02-22T19:07:18.069Z,100841.34
2023-02-22T19:09:45.373Z,100842.19
2023-02-22T19:12:12.537Z,100849.75
2023-02-22T19:14:39.510Z,100856.00
2023-02-22T19:17:07.812Z,100855.13
2023-02-22T19:19:35.479Z,100853.47
2023-02-22T19:22:02.564Z,100850.50
2023-02-22T19:24:29.996Z,100854.28
2023-02-22T19:27:00.263Z,100849.31
2023-02-22T19:29:27.509Z,100848.94
2023-02-22T19:31:54.573Z,100848.44
2023-02-22T19:34:24.188Z,100857.31
2023-02-22T19:36:51.517Z,100860.13
2023-02-22T19:39:20.265Z,100868.19
2023-02-22T19:41:47.396Z,100871.78
2023-02-22T19:44:14.397Z,100870.81
2023-02-22T19:46:41.522Z,100863.06
2023-02-22T19:49:08.767Z,100867.66
2023-02-22T19:51:35.827Z,100865.19
2023-02-22T19:54:03.959Z,100863.53
2023-02-22T19:56:31.876Z,100874.19
2023-02-22T19:59:00.427Z,100862.88
2023-02-22T20:01:30.376Z,100870.09
2023-02-22T20:04:00.174Z,100877.00
2023-02-22T20:06:30.409Z,100865.66
2023-02-22T20:08:57.579Z,100876.47
2023-02-22T20:11:25.577Z,100876.94
2023-02-22T20:13:52.700Z,100893.75
2023-02-22T20:16:20.005Z,100896.50
2023-02-22T20:18:47.757Z,100891.09
2023-02-22T20:21:18.048Z,100879.91
2023-02-22T20:23:45.280Z,100883.50
2023-02-22T20:26:14.920Z,100882.00
2023-02-22T20:28:41.968Z,100887.75
2023-02-22T20:31:11.565Z,100899.38
2023-02-22T20:33:42.021Z,100898.88
2023-02-22T20:36:11.043Z,100899.72
2023-02-22T20:38:38.419Z,100898.34
2023-02-22T20:41:07.355Z,100900.31
2023-02-22T20:43:34.988Z,100898.66
2023-02-22T20:46:03.334Z,100897.69
2023-02-22T20:48:30.459Z,100891.59
2023-02-22T20:50:57.915Z,100897.81
2023-02-22T20:53:25.575Z,100888.13
2023-02-22T20:55:56.076Z,100891.72
2023-02-22T20:58:23.480Z,100894.69
2023-02-22T21:00:50.678Z,100906.16
2023-02-22T21:03:17.878Z,100907.31
2023-02-22T21:05:45.660Z,100911.06
2023-02-22T21:08:13.039Z,100908.88
2023-02-22T21:10:42.644Z,100912.81
2023-02-22T21:13:11.493Z,100907.69
2023-02-22T21:15:43.797Z,100912.44
2023-02-22T21:18:11.567Z,100919.63
2023-02-22T21:20:41.193Z,100915.66
2023-02-22T21:23:08.873Z,100927.16
2023-02-22T21:25:38.041Z,100928.28
2023-02-22T21:28:05.807Z,100930.22
2023-02-22T21:30:33.476Z,100923.31
2023-02-22T21:33:01.701Z,100941.72
2023-02-22T21:35:28.964Z,100950.44
2023-02-22T21:37:56.310Z,100945.63
2023-02-22T21:40:26.733Z,100944.41
2023-02-22T21:42:53.797Z,100948.84
2023-02-22T21:45:23.523Z,100949.28
2023-02-22T21:47:55.057Z,100942.66
2023-02-22T21:50:22.074Z,100949.16
2023-02-22T21:52:49.418Z,100944.88
2023-02-22T21:55:16.451Z,100945.72
2023-02-22T21:57:43.547Z,100936.03
2023-02-22T22:00:14.113Z,100945.84
2023-02-22T22:02:41.126Z,100944.34
2023-02-22T22:05:09.635Z,100953.03
2023-02-22T22:07:36.654Z,100951.41
2023-02-22T22:10:07.093Z,100953.22
2023-02-22T22:12:39.423Z,100953.34
2023-02-22T22:15:06.863Z,100946.44
2023-02-22T22:17:34.065Z,100957.13
2023-02-22T22:20:01.309Z,100953.94
2023-02-22T22:22:28.712Z,100962.78
2023-02-22T22:24:55.774Z,100961.97
2023-02-22T22:27:22.896Z,100956.72
2023-02-22T22:29:49.867Z,100949.81
2023-02-22T22:32:17.067Z,100946.63
2023-02-22T22:34:44.159Z,100944.44
2023-02-22T22:37:11.226Z,100952.47
2023-02-22T22:39:38.907Z,100949.16
2023-02-22T22:42:06.048Z,100949.59
2023-02-22T22:44:41.870Z,100959.59
2023-02-22T22:47:12.641Z,100958.88
2023-02-22T22:49:40.733Z,100958.50
2023-02-22T22:52:09.837Z,100956.81
2023-02-22T22:54:37.359Z,100957.25
2023-02-22T22:57:04.525Z,100960.03
2023-02-22T22:59:32.130Z,100958.22
2023-02-22T23:01:59.685Z,100973.47
2023-02-22T23:04:26.786Z,100976.22
2023-02-22T23:06:54.470Z,100979.28
2023-02-22T23:09:23.239Z,100982.19
2023-02-22T23:11:54.073Z,100986.34
2023-02-22T23:14:22.476Z,100996.31
2023-02-22T23:16:51.479Z,100991.19
2023-02-22T23:19:20.436Z,101003.06
2023-02-22T23:21:48.632Z,101001.44
2023-02-22T23:24:16.756Z,101007.53
2023-02-22T23:26:49.081Z,101009.31
2023-02-22T23:29:17.997Z,100998.53
2023-02-22T23:31:48.716Z,100998.00
2023-02-22T23:34:17.279Z,100999.09
2023-02-22T23:36:45.385Z,100990.25
2023-02-22T23:39:13.547Z,100998.13
2023-02-22T23:41:44.424Z,101002.41
2023-02-22T23:44:17.071Z,101000.06
2023-02-22T23:46:44.997Z,101006.13
2023-02-22T23:49:11.947Z,101006.13
2023-02-22T23:51:39.699Z,101007.09
2023-02-22T23:54:07.323Z,101001.72
2023-02-22T23:56:35.807Z,101010.13
2023-02-22T23:59:09.810Z,101013.59
